Time;durP1;ratioP1;P1;durP2;ratioP2;P2;SDS_P1;SDS_P2;PMS_P1;PMS_P2;Temp;Humidity;BMP_temperature;BMP_pressure;BME280_temperature;BME280_humidity;BME280_pressure;Samples;Min_cycle;Max_cycle;Signal;HPM_P1;HPM_P2
2024/01/06 00:01:53;;;;;;;16.90;11.78;;;;;;;8.79;48.83;100195.79;1816630;79;22646;-87
2024/01/06 00:04:58;;;;;;;19.17;12.05;;;;;;;9.11;47.97;100207.77;1816706;79;21320;-88
2024/01/06 00:08:05;;;;;;;20.30;12.78;;;;;;;8.88;48.01;100200.75;1816674;79;21867;-88
2024/01/06 00:11:10;;;;;;;17.10;11.45;;;;;;;8.69;48.13;100206.00;1816775;79;21886;-88
2024/01/06 00:14:15;;;;;;;18.35;12.10;;;;;;;8.89;47.82;100201.97;1816858;79;21907;-88
2024/01/06 00:17:21;;;;;;;18.37;11.22;;;;;;;8.65;48.45;100202.74;1816885;79;21665;-88
2024/01/06 00:20:27;;;;;;;16.42;11.48;;;;;;;8.66;48.34;100206.35;1816785;79;21312;-88
2024/01/06 00:23:33;;;;;;;21.25;12.88;;;;;;;8.91;47.70;100206.73;1815715;79;21899;-87
2024/01/06 00:26:39;;;;;;;17.48;12.00;;;;;;;8.78;47.78;100204.14;1816974;79;21879;-88
2024/01/06 00:29:45;;;;;;;20.45;12.90;;;;;;;8.69;48.05;100206.84;1816883;79;21288;-88
2024/01/06 00:32:51;;;;;;;18.87;12.58;;;;;;;8.89;47.58;100206.06;1816256;79;21327;-87
2024/01/06 00:35:57;;;;;;;30.20;13.13;;;;;;;8.78;47.90;100215.91;1816687;79;21305;-88
2024/01/06 00:39:03;;;;;;;17.07;11.80;;;;;;;8.92;47.59;100230.25;1816570;79;21644;-88
2024/01/06 00:42:09;;;;;;;20.52;11.90;;;;;;;9.07;47.44;100229.08;1816488;79;21320;-88
2024/01/06 00:45:15;;;;;;;20.27;13.20;;;;;;;9.24;47.28;100215.47;1816613;79;22503;-88
2024/01/06 00:48:22;;;;;;;19.85;12.30;;;;;;;9.43;46.94;100212.39;1816676;79;21284;-87
2024/01/06 00:51:29;;;;;;;17.48;11.30;;;;;;;9.10;47.52;100219.72;1815185;79;21304;-88
2024/01/06 00:54:36;;;;;;;16.60;11.35;;;;;;;9.30;47.06;100240.19;1815250;79;21301;-88
2024/01/06 00:57:43;;;;;;;18.12;11.83;;;;;;;9.35;46.95;100230.13;1815982;79;21317;-88
2024/01/06 01:00:48;;;;;;;20.45;12.63;;;;;;;9.44;46.68;100240.03;1813870;78;21263;-88
2024/01/06 01:03:55;;;;;;;19.70;12.60;;;;;;;9.58;46.13;100239.85;1817055;79;21326;-87
2024/01/06 01:07:01;;;;;;;17.55;12.15;;;;;;;9.84;45.55;100240.52;1749960;82;21366;-87
2024/01/06 01:10:08;;;;;;;16.67;11.00;;;;;;;9.67;45.83;100252.48;1749942;82;21303;-88
2024/01/06 01:13:14;;;;;;;21.30;12.55;;;;;;;9.15;46.79;100245.98;1781835;80;21296;-88
2024/01/06 01:16:20;;;;;;;17.92;11.28;;;;;;;9.38;46.63;100254.37;1813476;79;21890;-87
2024/01/06 01:19:26;;;;;;;17.52;11.43;;;;;;;9.41;46.61;100254.01;1773673;81;22298;-87
2024/01/06 01:22:33;;;;;;;19.23;12.03;;;;;;;9.67;45.59;100248.38;1812051;79;21304;-87
2024/01/06 01:25:39;;;;;;;19.45;12.07;;;;;;;9.28;46.08;100250.44;1772225;81;21883;-88
2024/01/06 01:28:45;;;;;;;19.67;12.73;;;;;;;8.82;47.00;100245.92;1810858;79;21899;-88
2024/01/06 01:31:51;;;;;;;17.92;11.05;;;;;;;9.03;46.77;100244.59;1772840;80;21277;-88
2024/01/06 01:34:57;;;;;;;17.45;10.72;;;;;;;9.16;46.67;100246.32;1812322;79;21904;-88
2024/01/06 01:38:02;;;;;;;19.27;12.55;;;;;;;9.14;46.60;100247.02;1812951;79;21327;-87
2024/01/06 01:41:08;;;;;;;18.37;12.78;;;;;;;9.23;46.34;100245.16;1813370;79;21292;-88
2024/01/06 01:44:13;;;;;;;18.32;11.43;;;;;;;9.53;46.11;100244.98;1812646;79;21346;-88
2024/01/06 01:47:19;;;;;;;15.55;10.40;;;;;;;9.73;45.50;100252.63;1813585;79;21287;-88
2024/01/06 01:50:20;;;;;;;17.90;11.22;;;;;;;9.56;45.79;100255.57;1813608;79;21363;-88
2024/01/06 01:53:26;;;;;;;19.52;10.40;;;;;;;9.82;44.76;100248.53;1812914;79;21318;-87
2024/01/06 01:56:37;;;;;;;17.95;11.08;;;;;;;9.73;44.78;100261.34;1812063;79;21842;-88
2024/01/06 01:59:40;;;;;;;16.75;10.78;;;;;;;9.98;44.35;100269.86;1809366;79;21342;-88
2024/01/06 02:02:47;;;;;;;20.08;12.13;;;;;;;9.56;44.88;100271.44;1808641;79;21878;-88
2024/01/06 02:05:55;;;;;;;16.20;10.00;;;;;;;9.55;44.92;100279.78;1808565;79;21862;-88
2024/01/06 02:09:02;;;;;;;18.75;11.55;;;;;;;9.19;45.51;100285.56;1808017;79;21950;-87
2024/01/06 02:12:07;;;;;;;14.38;9.90;;;;;;;8.98;46.06;100286.52;1808507;79;21318;-89
2024/01/06 02:15:13;;;;;;;16.95;10.90;;;;;;;8.83;45.74;100285.80;1807585;79;21440;-88
2024/01/06 02:18:19;;;;;;;19.02;11.38;;;;;;;9.14;45.56;100301.08;1808515;79;21318;-88
2024/01/06 02:21:25;;;;;;;16.02;10.85;;;;;;;9.34;45.01;100296.16;1808756;78;21260;-88
2024/01/06 02:24:31;;;;;;;15.63;10.20;;;;;;;9.14;45.29;100292.89;1807601;79;21323;-88
2024/01/06 02:27:32;;;;;;;14.98;9.60;;;;;;;8.91;45.73;100290.45;1808551;79;21276;-88
2024/01/06 02:30:24;;;;;;;17.37;9.73;;;;;;;9.09;45.28;100297.15;1808699;79;21276;-88
2024/01/06 02:33:32;;;;;;;14.30;7.80;;;;;;;8.89;45.64;100304.27;1808842;79;21274;-87
2024/01/06 02:36:38;;;;;;;15.25;9.95;;;;;;;8.86;45.75;100295.03;1808617;79;21299;-88
2024/01/06 02:39:45;;;;;;;14.78;9.05;;;;;;;8.93;45.55;100304.76;1807496;79;21339;-89
2024/01/06 02:42:44;;;;;;;15.08;9.78;;;;;;;8.96;45.63;100301.70;1807908;79;21320;-88
2024/01/06 02:45:49;;;;;;;17.20;9.73;;;;;;;8.94;45.60;100295.58;1807363;79;21328;-87
2024/01/06 02:48:49;;;;;;;13.85;10.23;;;;;;;9.08;45.32;100299.02;1807250;79;21293;-88
2024/01/06 02:51:56;;;;;;;16.90;10.68;;;;;;;9.33;44.73;100301.28;1808677;79;21869;-88
2024/01/06 02:55:04;;;;;;;16.97;9.95;;;;;;;9.27;44.83;100296.50;1807017;79;21319;-87
2024/01/06 02:58:10;;;;;;;16.10;10.75;;;;;;;9.14;45.07;100293.41;1808645;79;21295;-87
2024/01/06 03:01:16;;;;;;;17.90;11.65;;;;;;;9.43;44.76;100299.23;1811885;79;21345;-88
2024/01/06 03:04:21;;;;;;;18.98;11.97;;;;;;;8.80;45.97;100288.00;1816935;79;21329;-88
2024/01/06 03:07:28;;;;;;;17.75;12.18;;;;;;;8.92;45.91;100284.81;1816908;79;21609;-87
2024/01/06 03:10:34;;;;;;;19.57;12.50;;;;;;;8.77;46.21;100291.93;1815917;79;21319;-88
2024/01/06 03:13:39;;;;;;;17.85;11.53;;;;;;;8.76;45.99;100290.23;1815469;79;21861;-88
2024/01/06 03:16:46;;;;;;;19.10;12.95;;;;;;;8.84;45.91;100303.88;1816900;79;21280;-88
2024/01/06 03:19:53;;;;;;;21.07;12.78;;;;;;;8.60;46.37;100306.51;1816918;79;21303;-88
2024/01/06 03:22:59;;;;;;;23.52;13.10;;;;;;;8.81;46.23;100308.31;1816814;79;21311;-88
2024/01/06 03:26:05;;;;;;;23.75;14.15;;;;;;;8.45;47.06;100313.94;1815466;79;21886;-88
2024/01/06 03:29:11;;;;;;;29.82;16.67;;;;;;;8.50;47.08;100327.59;1816891;79;21303;-88
2024/01/06 03:32:17;;;;;;;19.20;13.03;;;;;;;8.34;47.60;100333.28;1816766;79;21318;-87
2024/01/06 03:35:24;;;;;;;23.75;15.60;;;;;;;8.45;47.34;100353.98;1816281;79;21303;-88
2024/01/06 03:38:30;;;;;;;20.23;13.70;;;;;;;8.68;47.09;100347.45;1815330;79;21303;-88
2024/01/06 03:41:36;;;;;;;22.93;15.53;;;;;;;8.89;46.87;100341.09;1815331;79;21913;-88
2024/01/06 03:44:42;;;;;;;27.58;15.72;;;;;;;8.58;47.74;100348.94;1817075;79;21292;-88
2024/01/06 03:47:48;;;;;;;23.45;14.28;;;;;;;8.72;47.38;100348.84;1816610;79;21177;-88
2024/01/06 03:50:55;;;;;;;23.87;15.38;;;;;;;8.75;47.20;100358.55;1816932;79;21292;-88
2024/01/06 03:54:01;;;;;;;19.90;13.00;;;;;;;8.66;47.47;100372.17;1816684;79;21287;-88
2024/01/06 03:57:07;;;;;;;21.73;13.00;;;;;;;8.34;47.88;100372.80;1814685;79;21311;-88
2024/01/06 04:00:14;;;;;;;21.05;13.08;;;;;;;8.35;47.76;100369.05;1816067;79;21323;-88
2024/01/06 04:03:20;;;;;;;18.60;11.90;;;;;;;8.44;47.37;100379.53;1801301;79;21339;-87
2024/01/06 04:06:26;;;;;;;20.82;12.37;;;;;;;8.33;47.38;100385.23;1800381;79;21325;-87
2024/01/06 04:09:32;;;;;;;21.25;13.15;;;;;;;8.53;47.01;100385.89;1801019;79;21850;-88
2024/01/06 04:12:39;;;;;;;23.38;15.60;;;;;;;8.23;47.40;100388.03;1802661;79;21288;-88
2024/01/06 04:15:53;;;;;;;25.25;16.15;;;;;;;7.93;47.89;100395.64;1802246;79;21858;-89
2024/01/06 04:19:00;;;;;;;24.57;16.30;;;;;;;7.99;47.78;100393.30;1802746;79;21285;-87
2024/01/06 04:22:08;;;;;;;33.85;20.05;;;;;;;7.89;47.86;100387.42;1802623;79;21938;-87
2024/01/06 04:25:14;;;;;;;39.23;22.98;;;;;;;7.73;48.23;100404.14;1802772;79;21652;-88
2024/01/06 04:28:21;;;;;;;43.70;25.20;;;;;;;7.60;48.57;100409.45;1802652;79;21272;-88
2024/01/06 04:31:27;;;;;;;36.88;21.77;;;;;;;7.66;48.51;100417.50;1802573;79;21293;-88
2024/01/06 04:34:34;;;;;;;25.55;15.75;;;;;;;7.53;48.86;100421.10;1800895;78;21252;-87
2024/01/06 04:37:40;;;;;;;16.62;11.40;;;;;;;7.45;48.90;100416.95;1800113;79;21280;-87
2024/01/06 04:40:46;;;;;;;21.45;13.85;;;;;;;7.37;48.94;100407.67;1801437;79;21328;-87
2024/01/06 04:43:53;;;;;;;23.05;13.55;;;;;;;7.32;48.90;100415.95;1800287;79;21308;-87
2024/01/06 04:46:59;;;;;;;21.87;12.30;;;;;;;7.67;48.24;100416.01;1800128;79;21919;-87
2024/01/06 04:50:04;;;;;;;18.87;12.00;;;;;;;7.42;48.40;100419.47;1799939;79;21307;-87
2024/01/06 04:53:10;;;;;;;18.30;10.75;;;;;;;7.69;47.93;100415.84;1801455;79;21299;-88
2024/01/06 04:56:15;;;;;;;15.55;9.35;;;;;;;7.60;47.92;100414.05;1801079;79;22634;-88
2024/01/06 04:59:21;;;;;;;18.45;10.10;;;;;;;7.39;48.07;100426.09;1801381;79;21303;-88
2024/01/06 05:02:27;;;;;;;22.85;11.33;;;;;;;7.32;47.85;100430.41;1799963;79;21283;-86
2024/01/06 05:05:33;;;;;;;12.73;8.33;;;;;;;7.73;47.27;100431.38;1799657;79;21280;-88
2024/01/06 05:08:44;;;;;;;11.30;7.08;;;;;;;7.56;47.53;100431.69;1798219;79;21275;-88
2024/01/06 05:11:50;;;;;;;13.93;7.22;;;;;;;7.43;47.90;100428.86;1799276;79;21327;-88
2024/01/06 05:14:56;;;;;;;15.25;8.08;;;;;;;7.66;47.43;100417.50;1708948;83;21941;-88
2024/01/06 05:18:02;;;;;;;15.30;8.33;;;;;;;7.54;47.70;100414.17;1728880;82;21340;-88
2024/01/06 05:21:09;;;;;;;12.37;8.30;;;;;;;7.90;47.39;100414.16;1778642;80;21984;-88
2024/01/06 05:24:16;;;;;;;11.35;8.00;;;;;;;7.85;47.35;100418.70;1749205;82;21257;-88
2024/01/06 05:27:22;;;;;;;49.05;17.98;;;;;;;7.87;47.51;100419.94;1778911;80;22731;-88
2024/01/06 05:30:29;;;;;;;42.13;18.02;;;;;;;7.94;47.16;100423.22;1749107;82;22660;-89
2024/01/06 05:33:36;;;;;;;28.47;13.18;;;;;;;7.90;47.09;100434.10;1769962;80;21312;-88
2024/01/06 05:36:41;;;;;;;42.65;18.77;;;;;;;8.01;47.09;100436.23;1745582;82;21316;-87
2024/01/06 05:39:48;;;;;;;55.70;22.15;;;;;;;8.11;47.47;100445.17;1745464;82;21349;-88
2024/01/06 05:42:56;;;;;;;21.50;12.10;;;;;;;8.06;47.71;100437.98;1744891;82;21337;-88
2024/01/06 05:46:02;;;;;;;18.02;11.10;;;;;;;8.02;47.54;100446.96;1744139;82;21907;-88
2024/01/06 05:49:08;;;;;;;23.55;11.83;;;;;;;8.37;47.06;100452.89;1744059;81;21299;-88
2024/01/06 05:52:15;;;;;;;28.98;14.15;;;;;;;8.38;47.02;100449.18;1743916;82;21320;-88
2024/01/06 05:55:21;;;;;;;47.15;18.50;;;;;;;8.30;47.77;100449.58;1745429;82;21328;-89
2024/01/06 05:58:27;;;;;;;33.70;15.95;;;;;;;8.40;47.98;100447.64;1743780;81;21359;-88
2024/01/06 06:01:33;;;;;;;31.90;15.58;;;;;;;8.56;48.06;100448.26;1743350;82;21315;-90
2024/01/06 06:04:38;;;;;;;51.37;21.35;;;;;;;8.71;47.80;100446.68;1753664;80;21342;-88
2024/01/06 06:07:45;;;;;;;44.67;19.02;;;;;;;8.92;47.67;100436.21;1755654;81;21347;-87
2024/01/06 06:11:05;;;;;;;40.17;17.37;;;;;;;8.53;48.55;100432.24;1756283;81;21839;-89
2024/01/06 06:14:11;;;;;;;21.25;11.25;;;;;;;8.82;48.29;100432.75;1754701;81;21342;-88
2024/01/06 06:17:18;;;;;;;24.75;14.40;;;;;;;9.00;47.94;100446.84;1756076;81;21315;-88
2024/01/06 06:20:24;;;;;;;26.82;14.55;;;;;;;8.88;48.37;100451.70;1756386;81;21339;-87
2024/01/06 06:23:31;;;;;;;23.77;12.95;;;;;;;8.73;48.76;100451.45;1755011;81;21307;-88
2024/01/06 06:26:37;;;;;;;23.18;13.43;;;;;;;8.72;48.75;100457.92;1756708;81;21260;-88
2024/01/06 06:29:43;;;;;;;18.57;11.68;;;;;;;8.70;48.90;100448.55;1755105;81;21295;-89
2024/01/06 06:32:49;;;;;;;19.25;11.43;;;;;;;8.86;48.86;100455.11;1756054;81;21895;-89
2024/01/06 06:35:56;;;;;;;20.20;12.28;;;;;;;9.09;48.67;100451.31;1756504;81;21327;-88
2024/01/06 06:39:01;;;;;;;23.55;11.15;;;;;;;9.09;48.68;100455.41;1756394;81;21358;-89
2024/01/06 06:42:06;;;;;;;33.28;19.42;;;;;;;8.85;49.01;100441.98;1757116;81;21327;-89
2024/01/06 06:45:12;;;;;;;22.70;14.25;;;;;;;8.74;48.99;100455.03;1757417;81;21850;-90
2024/01/06 06:48:18;;;;;;;19.48;12.55;;;;;;;8.77;48.88;100456.08;1756830;81;21342;-88
2024/01/06 06:51:26;;;;;;;17.25;11.30;;;;;;;8.65;49.09;100458.20;1757337;81;21304;-88
2024/01/06 06:54:31;;;;;;;18.87;12.10;;;;;;;9.00;48.46;100461.84;1757306;81;21315;-89
2024/01/06 06:57:38;;;;;;;17.00;11.50;;;;;;;8.95;48.20;100459.59;1755971;81;21304;-89
2024/01/06 07:00:43;;;;;;;17.07;10.03;;;;;;;9.06;48.25;100468.00;1757529;81;21289;-88
2024/01/06 07:03:51;;;;;;;16.17;10.82;;;;;;;8.89;48.76;100461.59;1756283;81;21327;-88
2024/01/06 07:06:58;;;;;;;30.17;12.80;;;;;;;8.87;48.83;100469.95;1755932;80;21346;-89
2024/01/06 07:10:05;;;;;;;20.82;10.53;;;;;;;8.69;49.18;100473.23;1756061;81;21327;-89
2024/01/06 07:13:10;;;;;;;16.27;10.15;;;;;;;8.63;49.46;100480.19;1757223;81;21311;-89
2024/01/06 07:16:16;;;;;;;15.35;9.15;;;;;;;8.96;48.73;100470.34;1757268;81;21299;-89
2024/01/06 07:19:17;;;;;;;15.25;9.70;;;;;;;8.93;48.67;100451.55;1740948;81;21335;-89
2024/01/06 07:22:24;;;;;;;18.40;10.18;;;;;;;9.01;48.56;100451.27;1757436;81;21299;-88
2024/01/06 07:25:30;;;;;;;13.62;8.93;;;;;;;8.75;48.95;100454.00;1757307;81;21338;-88
2024/01/06 07:28:37;;;;;;;13.80;8.73;;;;;;;8.72;48.91;100459.29;1756868;81;21356;-88
2024/01/06 07:31:44;;;;;;;14.95;9.50;;;;;;;9.03;48.72;100457.41;1757319;81;21846;-89
2024/01/06 07:34:50;;;;;;;14.40;8.63;;;;;;;9.03;48.87;100465.08;1756446;81;21366;-88
2024/01/06 07:37:56;;;;;;;14.70;8.23;;;;;;;9.27;48.19;100469.83;1757426;81;21961;-89
2024/01/06 07:41:04;;;;;;;14.98;9.05;;;;;;;9.40;47.86;100448.87;1757409;81;21311;-90
2024/01/06 07:44:10;;;;;;;22.07;12.00;;;;;;;9.18;48.04;100433.96;1757361;81;21312;-89
2024/01/06 07:47:16;;;;;;;22.65;11.60;;;;;;;9.24;47.48;100436.54;1757408;81;21315;-89
2024/01/06 07:50:22;;;;;;;20.27;10.88;;;;;;;9.31;47.35;100456.68;1755948;81;22622;-88
2024/01/06 07:53:28;;;;;;;15.05;9.95;;;;;;;9.43;47.35;100467.14;1757446;81;21295;-88
2024/01/06 07:56:34;;;;;;;16.45;10.40;;;;;;;9.41;47.70;100474.66;1757219;81;21343;-89
2024/01/06 07:59:34;;;;;;;17.60;10.48;;;;;;;9.66;47.34;100466.03;1756873;81;21657;-89
2024/01/06 08:02:40;;;;;;;16.20;9.33;;;;;;;9.58;47.45;100461.05;1757301;81;21311;-88
2024/01/06 08:05:46;;;;;;;16.40;9.48;;;;;;;9.65;46.87;100456.64;1756127;80;21332;-88
2024/01/06 08:08:54;;;;;;;21.48;10.80;;;;;;;9.68;46.70;100455.77;1742975;82;21340;-88
2024/01/06 08:12:01;;;;;;;21.02;9.33;;;;;;;9.76;46.60;100454.10;1802783;79;21279;-88
2024/01/06 08:15:08;;;;;;;19.48;9.18;;;;;;;9.98;46.06;100473.44;1802612;79;21866;-88
2024/01/06 08:18:14;;;;;;;12.03;8.18;;;;;;;9.95;45.95;100492.89;1802924;79;21284;-89
2024/01/06 08:21:19;;;;;;;12.82;8.13;;;;;;;9.91;45.88;100481.09;1801241;79;21330;-89
2024/01/06 08:24:26;;;;;;;11.00;7.72;;;;;;;10.14;45.17;100474.48;1802648;79;21854;-89
2024/01/06 08:27:31;;;;;;;11.28;8.08;;;;;;;9.98;45.03;100470.70;1802763;79;21280;-89
2024/01/06 08:30:38;;;;;;;11.48;7.28;;;;;;;10.11;45.06;100471.55;1801585;79;21315;-88
2024/01/06 08:33:45;;;;;;;11.12;7.33;;;;;;;9.93;45.34;100481.29;1802676;79;21295;-88
2024/01/06 08:36:51;;;;;;;10.55;6.80;;;;;;;9.83;45.22;100488.75;1802840;79;21275;-89
2024/01/06 08:39:57;;;;;;;8.83;6.10;;;;;;;10.23;44.27;100477.56;1802215;79;21295;-89
2024/01/06 08:43:04;;;;;;;14.70;6.72;;;;;;;10.17;43.82;100471.41;1801235;79;21311;-88
2024/01/06 08:46:11;;;;;;;9.60;6.55;;;;;;;10.02;43.80;100482.65;1801352;79;21330;-89
2024/01/06 08:49:18;;;;;;;11.48;7.47;;;;;;;10.33;43.31;100482.38;1801200;79;21299;-87
2024/01/06 08:52:24;;;;;;;8.20;5.97;;;;;;;10.45;42.83;100474.18;1801195;79;21306;-90
2024/01/06 08:55:30;;;;;;;9.98;6.17;;;;;;;10.33;42.88;100459.13;1802696;79;22000;-89
2024/01/06 08:58:37;;;;;;;10.18;6.90;;;;;;;10.49;42.54;100465.98;1802711;79;21279;-88
2024/01/06 09:01:42;;;;;;;9.23;6.53;;;;;;;10.46;42.71;100466.31;1802632;79;21275;-89
2024/01/06 09:04:48;;;;;;;9.70;6.60;;;;;;;10.54;42.78;100472.30;1800968;79;21296;-89
2024/01/06 09:07:54;;;;;;;13.45;6.00;;;;;;;10.51;42.67;100461.70;1806169;79;21329;-89
2024/01/06 09:11:01;;;;;;;12.65;7.60;;;;;;;10.34;42.85;100455.88;1810195;79;21310;-88
2024/01/06 09:14:06;;;;;;;14.20;7.55;;;;;;;10.36;42.47;100459.32;1811249;79;21267;-89
2024/01/06 09:17:05;;;;;;;11.30;6.80;;;;;;;10.39;42.32;100459.80;1811294;79;21889;-89
2024/01/06 09:19:59;;;;;;;9.15;6.75;;;;;;;10.51;41.96;100460.33;1810946;79;22598;-88
2024/01/06 09:22:46;;;;;;;11.48;6.83;;;;;;;10.44;42.45;100445.62;1810991;79;21283;-89
2024/01/06 09:25:42;;;;;;;19.10;8.28;;;;;;;10.68;42.20;100436.04;1809645;79;21191;-89
2024/01/06 09:28:49;;;;;;;14.25;8.70;;;;;;;10.74;42.00;100434.48;1809751;79;21818;-90
2024/01/06 09:31:55;;;;;;;15.20;8.58;;;;;;;10.83;41.97;100432.06;1809572;79;21892;-88
2024/01/06 09:35:00;;;;;;;14.75;8.65;;;;;;;10.72;42.44;100426.43;1809766;79;21863;-89
2024/01/06 09:38:07;;;;;;;12.90;8.40;;;;;;;10.93;42.24;100422.29;1825056;78;21321;-89
2024/01/06 09:41:13;;;;;;;15.13;8.73;;;;;;;10.90;42.37;100408.42;1770281;81;21632;-87
2024/01/06 09:44:19;;;;;;;19.82;9.58;;;;;;;11.34;41.71;100388.76;1771726;81;21993;-89
2024/01/06 09:47:24;;;;;;;26.37;12.75;;;;;;;11.32;41.72;100369.41;1771561;81;21315;-89
2024/01/06 09:50:31;;;;;;;20.17;10.00;;;;;;;11.12;42.27;100367.64;1771333;81;21913;-89
2024/01/06 09:53:42;;;;;;;20.35;10.45;;;;;;;11.29;42.26;100379.34;1787643;80;21288;-88
2024/01/06 09:56:47;;;;;;;;;;;;;;;11.58;42.22;100370.47;1774141;81;21315;-88
2024/01/06 09:59:54;;;;;;;14.78;9.53;;;;;;;10.92;43.38;100369.96;1771724;81;20287;-88
2024/01/06 10:03:04;;;;;;;16.07;10.75;;;;;;;10.93;43.67;100370.30;1771798;81;21299;-87
2024/01/06 10:06:10;;;;;;;16.25;9.83;;;;;;;10.81;44.07;100356.64;1771557;81;21316;-89
2024/01/06 10:09:16;;;;;;;15.55;10.55;;;;;;;11.10;43.86;100349.16;1725070;81;21364;-89
2024/01/06 10:12:22;;;;;;;16.05;10.75;;;;;;;11.30;43.67;100343.59;1789826;80;21344;-89
2024/01/06 10:15:30;;;;;;;16.52;9.65;;;;;;;10.85;44.70;100347.91;1791214;80;21886;-89
2024/01/06 10:18:36;;;;;;;18.05;10.78;;;;;;;10.79;45.26;100336.31;1789618;80;21312;-89
2024/01/06 10:21:43;;;;;;;15.75;10.40;;;;;;;11.15;44.86;100326.20;1789746;80;21308;-88
2024/01/06 10:24:49;;;;;;;16.27;10.30;;;;;;;11.67;44.02;100325.55;1791148;80;21308;-88
2024/01/06 10:27:55;;;;;;;18.35;11.28;;;;;;;11.80;44.09;100321.64;1790101;80;21324;-89
2024/01/06 10:31:01;;;;;;;14.90;10.18;;;;;;;11.19;45.24;100311.97;1791219;80;21324;-90
2024/01/06 10:34:07;;;;;;;15.53;9.88;;;;;;;11.67;44.62;100316.80;1791475;80;21292;-90
2024/01/06 10:37:14;;;;;;;14.03;9.45;;;;;;;11.57;44.63;100311.21;1790921;80;21312;-89
2024/01/06 10:40:23;;;;;;;15.80;10.40;;;;;;;11.45;44.72;100308.91;1789882;80;21300;-89
2024/01/06 10:43:30;;;;;;;17.60;10.87;;;;;;;11.43;44.89;100312.36;1790070;80;21890;-89
2024/01/06 10:46:37;;;;;;;17.15;10.45;;;;;;;11.39;45.10;100308.80;1791291;80;21989;-89
2024/01/06 10:49:43;;;;;;;16.17;10.38;;;;;;;11.19;45.33;100305.65;1714002;83;21312;-89
2024/01/06 10:52:51;;;;;;;19.37;11.40;;;;;;;11.68;44.43;100291.63;1790229;80;21324;-88
2024/01/06 10:55:58;;;;;;;18.35;11.68;;;;;;;11.46;45.04;100281.84;1791231;80;21296;-88
2024/01/06 10:59:03;;;;;;;24.07;11.10;;;;;;;11.39;45.20;100274.05;1789761;80;21348;-90
2024/01/06 11:02:10;;;;;;;19.98;11.78;;;;;;;11.19;45.55;100270.05;1790657;80;21285;-89
2024/01/06 11:05:16;;;;;;;17.90;11.40;;;;;;;11.43;44.96;100268.54;1789880;80;21328;-89
2024/01/06 11:08:23;;;;;;;21.48;12.05;;;;;;;11.48;45.16;100268.84;1791707;80;21851;-89
2024/01/06 11:11:30;;;;;;;21.70;11.33;;;;;;;10.65;46.44;100260.45;1788477;79;21327;-89
2024/01/06 11:14:37;;;;;;;17.82;11.25;;;;;;;10.86;46.25;100256.56;1714089;83;21360;-89
2024/01/06 11:18:00;;;;;;;17.82;11.88;;;;;;;11.12;45.91;100258.99;1791213;80;21312;-89
2024/01/06 11:21:24;;;;;;;18.05;11.40;;;;;;;11.00;46.07;100248.11;1791246;80;21296;-89
2024/01/06 11:24:29;;;;;;;27.73;14.60;;;;;;;11.06;45.99;100250.66;1713849;83;21303;-90
2024/01/06 11:27:35;;;;;;;20.08;13.98;;;;;;;10.71;46.89;100238.70;1727309;80;21324;-89
2024/01/06 11:30:42;;;;;;;21.10;13.68;;;;;;;11.09;46.31;100246.17;1791299;80;21304;-88
2024/01/06 11:33:52;;;;;;;18.50;12.05;;;;;;;10.95;46.54;100238.22;1714112;83;21316;-90
2024/01/06 11:36:58;;;;;;;17.12;12.10;;;;;;;10.52;47.27;100243.76;1791560;80;21894;-89
2024/01/06 11:40:04;;;;;;;20.77;13.85;;;;;;;10.70;47.13;100232.05;1789925;80;21376;-89
2024/01/06 11:43:14;;;;;;;17.87;11.75;;;;;;;11.03;46.63;100219.55;1789870;80;21335;-88
2024/01/06 11:46:21;;;;;;;19.27;13.08;;;;;;;11.12;46.40;100214.34;1791332;80;21258;-89
2024/01/06 11:49:28;;;;;;;16.42;11.20;;;;;;;10.96;46.83;100215.29;1789849;80;21300;-88
2024/01/06 11:52:35;;;;;;;17.07;11.68;;;;;;;10.89;47.27;100217.91;1789887;80;21329;-89
2024/01/06 11:55:42;;;;;;;21.80;13.72;;;;;;;10.96;47.04;100220.27;1789816;80;21300;-88
2024/01/06 11:58:48;;;;;;;18.60;11.90;;;;;;;11.09;46.75;100222.91;1790647;80;21348;-88
2024/01/06 12:01:54;;;;;;;21.55;13.05;;;;;;;11.08;47.00;100219.84;1791143;80;21300;-89
2024/01/06 12:05:01;;;;;;;20.20;13.40;;;;;;;10.83;47.33;100224.11;1789625;80;21894;-89
2024/01/06 12:08:09;;;;;;;24.63;14.55;;;;;;;10.71;47.62;100211.86;1789689;80;21337;-89
2024/01/06 12:11:15;;;;;;;21.65;13.32;;;;;;;10.69;47.70;100208.47;1789533;80;21367;-88
2024/01/06 12:14:20;;;;;;;22.40;13.50;;;;;;;10.48;48.30;100211.28;1789946;80;21317;-89
2024/01/06 12:17:28;;;;;;;23.95;13.30;;;;;;;10.65;47.81;100204.38;1791255;80;21297;-89
2024/01/06 12:20:35;;;;;;;19.17;12.80;;;;;;;10.38;48.23;100210.66;1704399;83;21878;-88
2024/01/06 12:23:39;;;;;;;22.02;14.58;;;;;;;10.68;47.76;100203.52;1790541;80;21870;-89
2024/01/06 12:26:47;;;;;;;24.00;13.53;;;;;;;10.93;47.32;100193.78;1791317;80;21305;-88
2024/01/06 12:29:54;;;;;;;29.00;15.68;;;;;;;10.73;47.55;100196.14;1790447;80;21324;-89
2024/01/06 12:33:01;;;;;;;25.65;15.08;;;;;;;10.33;48.34;100187.09;1790853;80;21328;-88
2024/01/06 12:36:07;;;;;;;22.85;13.65;;;;;;;10.44;48.13;100181.74;1713873;83;21320;-89
2024/01/06 12:39:16;;;;;;;22.05;13.70;;;;;;;10.55;48.10;100170.42;1791130;80;21288;-88
2024/01/06 12:42:23;;;;;;;22.27;13.50;;;;;;;10.57;48.10;100159.29;1755655;80;21328;-88
2024/01/06 12:45:29;;;;;;;22.58;13.55;;;;;;;10.83;47.52;100159.81;1790233;80;21325;-89
2024/01/06 12:48:35;;;;;;;23.30;13.80;;;;;;;10.70;47.65;100148.61;1791299;80;21875;-89
2024/01/06 12:51:42;;;;;;;20.97;12.75;;;;;;;10.92;47.45;100149.67;1791110;80;21296;-89
2024/01/06 12:54:48;;;;;;;20.10;13.65;;;;;;;10.85;47.45;100149.53;1789806;80;21925;-89
2024/01/06 12:57:54;;;;;;;21.35;12.75;;;;;;;11.29;46.80;100152.08;1791274;80;21303;-88
2024/01/06 13:01:02;;;;;;;21.37;13.95;;;;;;;11.18;47.04;100145.17;1791060;80;21328;-88
2024/01/06 13:04:08;;;;;;;24.47;14.23;;;;;;;11.04;47.24;100142.71;1790557;80;21890;-89
2024/01/06 13:07:15;;;;;;;23.62;13.62;;;;;;;10.53;48.01;100140.16;1791167;80;21288;-89
2024/01/06 13:10:20;;;;;;;19.07;13.62;;;;;;;10.81;47.90;100124.93;1791076;78;21930;-87
2024/01/06 13:13:26;;;;;;;22.80;13.75;;;;;;;10.55;48.38;100123.08;1792292;80;21643;-87
2024/01/06 13:16:32;;;;;;;30.75;15.38;;;;;;;10.26;49.01;100108.70;1794759;80;21296;-87
2024/01/06 13:19:39;;;;;;;30.65;16.50;;;;;;;10.06;49.50;100109.62;1726999;83;22642;-87
2024/01/06 13:22:46;;;;;;;28.95;15.75;;;;;;;10.14;49.64;100100.03;1794947;80;21292;-87
2024/01/06 13:25:52;;;;;;;24.55;14.73;;;;;;;10.64;48.53;100113.27;1800355;79;21308;-88
2024/01/06 13:28:57;;;;;;;29.23;14.47;;;;;;;10.87;48.06;100113.27;1816626;79;21284;-90
2024/01/06 13:32:03;;;;;;;24.85;15.18;;;;;;;10.86;47.99;100115.66;1817846;79;21324;-89
2024/01/06 13:35:11;;;;;;;22.58;14.55;;;;;;;11.08;47.70;100114.47;1816656;79;21331;-88
2024/01/06 13:38:16;;;;;;;28.02;15.43;;;;;;;10.60;48.54;100095.52;1735397;82;21355;-89
2024/01/06 13:41:21;;;;;;;23.22;14.38;;;;;;;10.79;48.33;100102.38;1812971;79;21295;-88
2024/01/06 13:44:26;;;;;;;25.05;14.03;;;;;;;10.66;48.49;100092.56;1807541;79;21937;-87
2024/01/06 13:47:32;;;;;;;22.70;13.45;;;;;;;10.78;48.37;100080.69;1771422;81;21347;-88
2024/01/06 13:50:37;;;;;;;22.80;12.10;;;;;;;10.70;48.58;100082.44;1807383;79;21315;-88
2024/01/06 13:53:43;;;;;;;16.65;11.38;;;;;;;10.59;48.50;100080.67;1770169;81;22392;-87
2024/01/06 13:56:49;;;;;;;19.10;11.50;;;;;;;10.80;47.94;100072.62;1824339;78;21326;-89
2024/01/06 13:59:57;;;;;;;20.23;11.35;;;;;;;10.58;48.33;100064.74;1762630;81;21304;-88
2024/01/06 14:03:04;;;;;;;25.05;11.63;;;;;;;10.79;47.88;100059.98;1834033;78;21292;-88
2024/01/06 14:06:10;;;;;;;17.20;11.15;;;;;;;10.59;48.07;100059.63;1763211;81;21311;-88
2024/01/06 14:09:16;;;;;;;20.45;11.15;;;;;;;10.60;48.00;100055.86;1834346;78;21532;-87
2024/01/06 14:12:22;;;;;;;19.75;11.05;;;;;;;10.87;47.48;100055.81;1834295;78;21280;-88
2024/01/06 14:15:29;;;;;;;17.12;10.20;;;;;;;10.60;47.82;100056.38;1833187;78;21387;-87